sensor_id;sensor_type;location;lat;lon;timestamp;P1;durP1;ratioP1;P2;durP2;ratioP2
64982;SDS011;62161;54.688;25.256;2022-07-15T00:01:31;5.85;;;1.23;;
64982;SDS011;62161;54.688;25.256;2022-07-15T00:03:59;5.22;;;1.33;;
64982;SDS011;62161;54.688;25.256;2022-07-15T00:06:24;3.80;;;1.25;;
64982;SDS011;62161;54.688;25.256;2022-07-15T00:08:50;7.20;;;1.42;;
64982;SDS011;62161;54.688;25.256;2022-07-15T00:11:15;6.13;;;1.55;;
64982;SDS011;62161;54.688;25.256;2022-07-15T00:13:41;6.30;;;1.40;;
64982;SDS011;62161;54.688;25.256;2022-07-15T00:16:06;7.57;;;1.50;;
64982;SDS011;62161;54.688;25.256;2022-07-15T00:18:32;8.45;;;1.40;;
64982;SDS011;62161;54.688;25.256;2022-07-15T00:20:57;4.25;;;1.40;;
64982;SDS011;62161;54.688;25.256;2022-07-15T00:23:22;9.13;;;1.63;;
64982;SDS011;62161;54.688;25.256;2022-07-15T00:25:48;7.30;;;1.40;;
64982;SDS011;62161;54.688;25.256;2022-07-15T00:28:13;7.82;;;1.60;;
64982;SDS011;62161;54.688;25.256;2022-07-15T00:30:40;3.80;;;1.13;;
64982;SDS011;62161;54.688;25.256;2022-07-15T00:33:06;7.97;;;1.42;;
64982;SDS011;62161;54.688;25.256;2022-07-15T00:35:34;7.40;;;1.30;;
64982;SDS011;62161;54.688;25.256;2022-07-15T00:38:00;5.72;;;1.45;;
64982;SDS011;62161;54.688;25.256;2022-07-15T00:40:26;4.88;;;1.20;;
64982;SDS011;62161;54.688;25.256;2022-07-15T00:42:52;7.72;;;1.40;;
64982;SDS011;62161;54.688;25.256;2022-07-15T00:45:18;5.40;;;1.45;;
64982;SDS011;62161;54.688;25.256;2022-07-15T00:47:49;7.05;;;1.23;;
64982;SDS011;62161;54.688;25.256;2022-07-15T00:50:19;8.98;;;1.73;;
64982;SDS011;62161;54.688;25.256;2022-07-15T00:52:56;8.95;;;1.40;;
64982;SDS011;62161;54.688;25.256;2022-07-15T00:55:25;8.13;;;1.50;;
64982;SDS011;62161;54.688;25.256;2022-07-15T00:57:55;4.40;;;1.20;;
64982;SDS011;62161;54.688;25.256;2022-07-15T01:00:24;6.30;;;1.50;;
64982;SDS011;62161;54.688;25.256;2022-07-15T01:02:50;7.05;;;1.40;;
64982;SDS011;62161;54.688;25.256;2022-07-15T01:05:18;6.55;;;1.60;;
64982;SDS011;62161;54.688;25.256;2022-07-15T01:07:45;5.15;;;1.45;;
64982;SDS011;62161;54.688;25.256;2022-07-15T01:10:11;8.55;;;1.60;;
64982;SDS011;62161;54.688;25.256;2022-07-15T01:12:37;6.50;;;1.63;;
64982;SDS011;62161;54.688;25.256;2022-07-15T01:15:05;8.38;;;1.50;;
64982;SDS011;62161;54.688;25.256;2022-07-15T01:17:32;3.88;;;1.20;;
64982;SDS011;62161;54.688;25.256;2022-07-15T01:19:58;4.40;;;1.20;;
64982;SDS011;62161;54.688;25.256;2022-07-15T01:22:24;4.90;;;1.40;;
64982;SDS011;62161;54.688;25.256;2022-07-15T01:24:49;4.20;;;1.30;;
64982;SDS011;62161;54.688;25.256;2022-07-15T01:27:15;12.02;;;1.40;;
64982;SDS011;62161;54.688;25.256;2022-07-15T01:29:40;6.43;;;1.38;;
64982;SDS011;62161;54.688;25.256;2022-07-15T01:32:06;10.25;;;1.60;;
64982;SDS011;62161;54.688;25.256;2022-07-15T01:34:31;6.43;;;1.42;;
64982;SDS011;62161;54.688;25.256;2022-07-15T01:36:57;7.68;;;1.60;;
64982;SDS011;62161;54.688;25.256;2022-07-15T01:39:22;5.85;;;1.33;;
64982;SDS011;62161;54.688;25.256;2022-07-15T01:41:48;6.40;;;1.40;;
64982;SDS011;62161;54.688;25.256;2022-07-15T01:44:13;8.75;;;1.60;;
64982;SDS011;62161;54.688;25.256;2022-07-15T01:46:42;7.40;;;1.50;;
64982;SDS011;62161;54.688;25.256;2022-07-15T01:49:07;6.53;;;1.83;;
64982;SDS011;62161;54.688;25.256;2022-07-15T01:51:52;5.70;;;1.40;;
64982;SDS011;62161;54.688;25.256;2022-07-15T01:54:19;5.15;;;1.40;;
64982;SDS011;62161;54.688;25.256;2022-07-15T01:56:45;7.07;;;1.52;;
64982;SDS011;62161;54.688;25.256;2022-07-15T01:59:11;5.00;;;1.45;;
64982;SDS011;62161;54.688;25.256;2022-07-15T02:01:36;6.57;;;1.60;;
64982;SDS011;62161;54.688;25.256;2022-07-15T02:04:02;9.07;;;1.50;;
64982;SDS011;62161;54.688;25.256;2022-07-15T02:06:27;7.50;;;1.40;;
64982;SDS011;62161;54.688;25.256;2022-07-15T02:08:54;6.75;;;1.60;;
64982;SDS011;62161;54.688;25.256;2022-07-15T02:11:19;4.07;;;1.40;;
64982;SDS011;62161;54.688;25.256;2022-07-15T02:13:45;8.40;;;1.60;;
64982;SDS011;62161;54.688;25.256;2022-07-15T02:16:10;4.68;;;1.60;;
64982;SDS011;62161;54.688;25.256;2022-07-15T02:18:36;6.68;;;1.73;;
64982;SDS011;62161;54.688;25.256;2022-07-15T02:21:01;8.10;;;1.85;;
64982;SDS011;62161;54.688;25.256;2022-07-15T02:23:27;5.15;;;1.70;;
64982;SDS011;62161;54.688;25.256;2022-07-15T02:25:54;8.55;;;1.83;;
64982;SDS011;62161;54.688;25.256;2022-07-15T02:28:19;9.77;;;1.73;;
64982;SDS011;62161;54.688;25.256;2022-07-15T02:30:44;5.45;;;1.73;;
64982;SDS011;62161;54.688;25.256;2022-07-15T02:33:10;6.28;;;1.77;;
64982;SDS011;62161;54.688;25.256;2022-07-15T02:35:39;5.07;;;1.70;;
64982;SDS011;62161;54.688;25.256;2022-07-15T02:38:05;6.07;;;1.63;;
64982;SDS011;62161;54.688;25.256;2022-07-15T02:40:31;6.03;;;2.05;;
64982;SDS011;62161;54.688;25.256;2022-07-15T02:42:58;7.80;;;1.83;;
64982;SDS011;62161;54.688;25.256;2022-07-15T02:45:26;5.43;;;1.83;;
64982;SDS011;62161;54.688;25.256;2022-07-15T02:47:53;6.65;;;2.00;;
64982;SDS011;62161;54.688;25.256;2022-07-15T02:50:19;5.95;;;1.80;;
64982;SDS011;62161;54.688;25.256;2022-07-15T02:52:46;6.68;;;2.00;;
64982;SDS011;62161;54.688;25.256;2022-07-15T02:55:11;5.63;;;1.80;;
64982;SDS011;62161;54.688;25.256;2022-07-15T02:57:38;4.43;;;1.70;;
64982;SDS011;62161;54.688;25.256;2022-07-15T03:00:05;3.25;;;1.50;;
64982;SDS011;62161;54.688;25.256;2022-07-15T03:02:33;7.00;;;1.73;;
64982;SDS011;62161;54.688;25.256;2022-07-15T03:04:58;7.97;;;1.70;;
64982;SDS011;62161;54.688;25.256;2022-07-15T03:07:25;9.55;;;1.88;;
64982;SDS011;62161;54.688;25.256;2022-07-15T03:09:53;6.10;;;1.73;;
64982;SDS011;62161;54.688;25.256;2022-07-15T03:12:19;5.22;;;1.77;;
64982;SDS011;62161;54.688;25.256;2022-07-15T03:14:44;5.85;;;1.63;;
64982;SDS011;62161;54.688;25.256;2022-07-15T03:17:10;7.90;;;1.80;;
64982;SDS011;62161;54.688;25.256;2022-07-15T03:19:35;5.43;;;1.67;;
64982;SDS011;62161;54.688;25.256;2022-07-15T03:22:00;6.07;;;1.80;;
64982;SDS011;62161;54.688;25.256;2022-07-15T03:24:26;5.90;;;1.70;;
64982;SDS011;62161;54.688;25.256;2022-07-15T03:26:51;5.30;;;1.90;;
64982;SDS011;62161;54.688;25.256;2022-07-15T03:29:17;10.02;;;1.98;;
64982;SDS011;62161;54.688;25.256;2022-07-15T03:31:42;5.80;;;1.90;;
64982;SDS011;62161;54.688;25.256;2022-07-15T03:34:08;6.32;;;1.70;;
64982;SDS011;62161;54.688;25.256;2022-07-15T03:36:35;5.78;;;2.50;;
64982;SDS011;62161;54.688;25.256;2022-07-15T03:39:02;7.32;;;1.63;;
64982;SDS011;62161;54.688;25.256;2022-07-15T03:41:28;9.25;;;2.10;;
64982;SDS011;62161;54.688;25.256;2022-07-15T03:43:54;6.60;;;1.60;;
64982;SDS011;62161;54.688;25.256;2022-07-15T03:46:20;8.98;;;1.65;;
64982;SDS011;62161;54.688;25.256;2022-07-15T03:48:45;11.43;;;1.75;;
64982;SDS011;62161;54.688;25.256;2022-07-15T03:51:11;5.22;;;1.83;;
64982;SDS011;62161;54.688;25.256;2022-07-15T03:53:36;4.93;;;1.50;;
64982;SDS011;62161;54.688;25.256;2022-07-15T03:56:08;7.93;;;1.60;;
64982;SDS011;62161;54.688;25.256;2022-07-15T03:59:04;8.82;;;1.67;;
64982;SDS011;62161;54.688;25.256;2022-07-15T04:01:31;5.93;;;1.50;;
64982;SDS011;62161;54.688;25.256;2022-07-15T04:03:57;9.68;;;1.80;;
64982;SDS011;62161;54.688;25.256;2022-07-15T04:06:23;3.58;;;1.23;;
64982;SDS011;62161;54.688;25.256;2022-07-15T04:08:49;6.78;;;1.70;;
64982;SDS011;62161;54.688;25.256;2022-07-15T04:11:15;8.32;;;1.70;;
64982;SDS011;62161;54.688;25.256;2022-07-15T04:13:41;5.35;;;1.70;;
64982;SDS011;62161;54.688;25.256;2022-07-15T04:16:08;4.78;;;1.50;;
64982;SDS011;62161;54.688;25.256;2022-07-15T04:18:34;6.22;;;1.50;;
64982;SDS011;62161;54.688;25.256;2022-07-15T04:21:00;6.75;;;1.50;;
64982;SDS011;62161;54.688;25.256;2022-07-15T04:23:26;8.25;;;1.52;;
64982;SDS011;62161;54.688;25.256;2022-07-15T04:25:52;6.72;;;1.75;;
64982;SDS011;62161;54.688;25.256;2022-07-15T04:28:18;5.95;;;1.63;;
64982;SDS011;62161;54.688;25.256;2022-07-15T04:30:47;6.32;;;1.45;;
64982;SDS011;62161;54.688;25.256;2022-07-15T04:33:13;5.70;;;1.60;;
64982;SDS011;62161;54.688;25.256;2022-07-15T04:35:38;7.00;;;1.33;;
64982;SDS011;62161;54.688;25.256;2022-07-15T04:38:04;7.88;;;1.40;;
64982;SDS011;62161;54.688;25.256;2022-07-15T04:40:30;10.85;;;1.50;;
64982;SDS011;62161;54.688;25.256;2022-07-15T04:43:00;5.80;;;1.40;;
64982;SDS011;62161;54.688;25.256;2022-07-15T04:45:26;6.10;;;1.40;;
64982;SDS011;62161;54.688;25.256;2022-07-15T04:47:51;9.52;;;1.38;;
64982;SDS011;62161;54.688;25.256;2022-07-15T04:50:17;8.05;;;1.33;;
64982;SDS011;62161;54.688;25.256;2022-07-15T04:53:01;6.15;;;1.17;;
64982;SDS011;62161;54.688;25.256;2022-07-15T04:55:26;4.65;;;1.20;;
64982;SDS011;62161;54.688;25.256;2022-07-15T04:57:52;4.78;;;1.08;;
64982;SDS011;62161;54.688;25.256;2022-07-15T05:00:18;5.10;;;1.23;;
64982;SDS011;62161;54.688;25.256;2022-07-15T05:02:44;5.90;;;1.10;;
64982;SDS011;62161;54.688;25.256;2022-07-15T05:05:09;8.95;;;2.13;;
64982;SDS011;62161;54.688;25.256;2022-07-15T05:07:35;5.88;;;1.45;;
64982;SDS011;62161;54.688;25.256;2022-07-15T05:10:00;6.90;;;1.05;;
64982;SDS011;62161;54.688;25.256;2022-07-15T05:12:26;3.55;;;1.15;;
64982;SDS011;62161;54.688;25.256;2022-07-15T05:14:51;4.15;;;1.27;;
64982;SDS011;62161;54.688;25.256;2022-07-15T05:17:17;4.07;;;1.10;;
64982;SDS011;62161;54.688;25.256;2022-07-15T05:19:42;7.97;;;1.40;;
64982;SDS011;62161;54.688;25.256;2022-07-15T05:22:07;8.10;;;1.17;;
64982;SDS011;62161;54.688;25.256;2022-07-15T05:24:33;5.00;;;1.15;;
64982;SDS011;62161;54.688;25.256;2022-07-15T05:26:58;4.53;;;1.17;;
64982;SDS011;62161;54.688;25.256;2022-07-15T05:29:24;6.70;;;1.40;;
64982;SDS011;62161;54.688;25.256;2022-07-15T05:31:50;2.60;;;1.00;;
64982;SDS011;62161;54.688;25.256;2022-07-15T05:34:16;5.18;;;1.20;;
64982;SDS011;62161;54.688;25.256;2022-07-15T05:36:42;5.88;;;1.30;;
64982;SDS011;62161;54.688;25.256;2022-07-15T05:39:07;10.57;;;1.58;;
64982;SDS011;62161;54.688;25.256;2022-07-15T05:41:33;5.82;;;1.17;;
64982;SDS011;62161;54.688;25.256;2022-07-15T05:43:59;3.67;;;0.95;;
64982;SDS011;62161;54.688;25.256;2022-07-15T05:46:25;5.25;;;1.30;;
64982;SDS011;62161;54.688;25.256;2022-07-15T05:48:50;5.32;;;1.25;;
64982;SDS011;62161;54.688;25.256;2022-07-15T05:51:16;4.05;;;1.23;;
64982;SDS011;62161;54.688;25.256;2022-07-15T05:53:42;6.93;;;1.20;;
64982;SDS011;62161;54.688;25.256;2022-07-15T05:56:07;6.43;;;1.20;;
64982;SDS011;62161;54.688;25.256;2022-07-15T05:58:33;8.90;;;1.38;;
64982;SDS011;62161;54.688;25.256;2022-07-15T06:00:59;6.40;;;1.13;;
64982;SDS011;62161;54.688;25.256;2022-07-15T06:03:25;4.18;;;1.00;;
64982;SDS011;62161;54.688;25.256;2022-07-15T06:05:50;6.40;;;1.15;;
64982;SDS011;62161;54.688;25.256;2022-07-15T06:08:15;4.88;;;1.00;;
64982;SDS011;62161;54.688;25.256;2022-07-15T06:10:41;7.57;;;1.00;;
64982;SDS011;62161;54.688;25.256;2022-07-15T06:13:07;2.90;;;0.75;;
64982;SDS011;62161;54.688;25.256;2022-07-15T06:15:33;4.60;;;1.10;;
64982;SDS011;62161;54.688;25.256;2022-07-15T06:17:58;6.82;;;1.02;;
64982;SDS011;62161;54.688;25.256;2022-07-15T06:20:24;4.70;;;1.02;;
64982;SDS011;62161;54.688;25.256;2022-07-15T06:22:49;4.10;;;1.05;;
64982;SDS011;62161;54.688;25.256;2022-07-15T06:25:15;5.20;;;1.50;;
64982;SDS011;62161;54.688;25.256;2022-07-15T06:27:40;5.18;;;0.90;;
64982;SDS011;62161;54.688;25.256;2022-07-15T06:30:06;6.85;;;1.27;;
64982;SDS011;62161;54.688;25.256;2022-07-15T06:32:32;3.38;;;0.80;;
64982;SDS011;62161;54.688;25.256;2022-07-15T06:34:57;5.72;;;1.00;;
64982;SDS011;62161;54.688;25.256;2022-07-15T06:37:23;4.88;;;0.80;;
64982;SDS011;62161;54.688;25.256;2022-07-15T06:39:48;4.38;;;1.00;;
64982;SDS011;62161;54.688;25.256;2022-07-15T06:42:14;5.43;;;1.20;;
64982;SDS011;62161;54.688;25.256;2022-07-15T06:44:39;5.68;;;0.93;;
64982;SDS011;62161;54.688;25.256;2022-07-15T06:47:05;6.20;;;0.98;;
64982;SDS011;62161;54.688;25.256;2022-07-15T06:49:32;8.00;;;1.10;;
64982;SDS011;62161;54.688;25.256;2022-07-15T06:51:58;3.80;;;0.90;;
64982;SDS011;62161;54.688;25.256;2022-07-15T06:54:24;3.00;;;0.90;;
64982;SDS011;62161;54.688;25.256;2022-07-15T06:56:49;3.78;;;0.85;;
64982;SDS011;62161;54.688;25.256;2022-07-15T06:59:15;4.75;;;1.00;;
64982;SDS011;62161;54.688;25.256;2022-07-15T07:01:40;5.70;;;1.33;;
64982;SDS011;62161;54.688;25.256;2022-07-15T07:04:06;6.47;;;1.10;;
64982;SDS011;62161;54.688;25.256;2022-07-15T07:06:31;8.05;;;1.23;;
64982;SDS011;62161;54.688;25.256;2022-07-15T07:08:57;3.05;;;0.85;;
64982;SDS011;62161;54.688;25.256;2022-07-15T07:11:23;4.55;;;1.00;;
64982;SDS011;62161;54.688;25.256;2022-07-15T07:13:49;4.75;;;0.80;;
64982;SDS011;62161;54.688;25.256;2022-07-15T07:16:15;1.42;;;0.63;;
64982;SDS011;62161;54.688;25.256;2022-07-15T07:18:41;2.25;;;0.80;;
64982;SDS011;62161;54.688;25.256;2022-07-15T07:21:07;7.82;;;0.88;;
64982;SDS011;62161;54.688;25.256;2022-07-15T07:23:32;2.13;;;0.75;;
64982;SDS011;62161;54.688;25.256;2022-07-15T07:25:59;5.15;;;0.80;;
64982;SDS011;62161;54.688;25.256;2022-07-15T07:28:24;3.63;;;0.80;;
64982;SDS011;62161;54.688;25.256;2022-07-15T07:30:50;2.95;;;0.85;;
64982;SDS011;62161;54.688;25.256;2022-07-15T07:33:17;4.88;;;0.98;;
64982;SDS011;62161;54.688;25.256;2022-07-15T07:35:43;7.90;;;0.85;;
64982;SDS011;62161;54.688;25.256;2022-07-15T07:38:09;4.55;;;0.95;;
64982;SDS011;62161;54.688;25.256;2022-07-15T07:40:35;5.03;;;1.00;;
64982;SDS011;62161;54.688;25.256;2022-07-15T07:43:00;3.15;;;0.90;;
64982;SDS011;62161;54.688;25.256;2022-07-15T07:45:26;5.53;;;1.10;;
64982;SDS011;62161;54.688;25.256;2022-07-15T07:47:53;4.60;;;1.17;;
64982;SDS011;62161;54.688;25.256;2022-07-15T07:50:19;9.73;;;1.17;;
64982;SDS011;62161;54.688;25.256;2022-07-15T07:52:45;5.82;;;1.02;;
64982;SDS011;62161;54.688;25.256;2022-07-15T07:55:10;3.13;;;1.00;;
64982;SDS011;62161;54.688;25.256;2022-07-15T07:57:36;4.65;;;0.98;;
64982;SDS011;62161;54.688;25.256;2022-07-15T08:00:19;16.08;;;1.00;;
64982;SDS011;62161;54.688;25.256;2022-07-15T08:02:45;4.65;;;0.80;;
64982;SDS011;62161;54.688;25.256;2022-07-15T08:05:12;3.53;;;0.80;;
64982;SDS011;62161;54.688;25.256;2022-07-15T08:07:38;3.03;;;0.80;;
64982;SDS011;62161;54.688;25.256;2022-07-15T08:10:05;4.03;;;1.10;;
64982;SDS011;62161;54.688;25.256;2022-07-15T08:12:31;2.63;;;0.80;;
64982;SDS011;62161;54.688;25.256;2022-07-15T08:14:57;5.72;;;1.00;;
64982;SDS011;62161;54.688;25.256;2022-07-15T08:17:22;7.55;;;1.23;;
64982;SDS011;62161;54.688;25.256;2022-07-15T08:19:48;3.85;;;1.05;;
64982;SDS011;62161;54.688;25.256;2022-07-15T08:22:14;2.50;;;1.00;;
64982;SDS011;62161;54.688;25.256;2022-07-15T08:24:40;4.25;;;1.17;;
64982;SDS011;62161;54.688;25.256;2022-07-15T08:27:06;5.50;;;1.08;;
64982;SDS011;62161;54.688;25.256;2022-07-15T08:29:32;4.60;;;1.10;;
64982;SDS011;62161;54.688;25.256;2022-07-15T08:31:57;8.32;;;1.40;;
64982;SDS011;62161;54.688;25.256;2022-07-15T08:34:28;10.35;;;1.58;;
64982;SDS011;62161;54.688;25.256;2022-07-15T08:36:54;5.55;;;1.20;;
64982;SDS011;62161;54.688;25.256;2022-07-15T08:39:20;4.93;;;1.48;;
64982;SDS011;62161;54.688;25.256;2022-07-15T08:41:45;4.57;;;1.40;;
64982;SDS011;62161;54.688;25.256;2022-07-15T08:44:10;4.20;;;1.10;;
64982;SDS011;62161;54.688;25.256;2022-07-15T08:46:36;3.17;;;1.20;;
64982;SDS011;62161;54.688;25.256;2022-07-15T08:49:04;4.18;;;1.20;;
64982;SDS011;62161;54.688;25.256;2022-07-15T08:51:35;4.57;;;0.98;;
64982;SDS011;62161;54.688;25.256;2022-07-15T08:56:32;6.13;;;1.05;;
64982;SDS011;62161;54.688;25.256;2022-07-15T08:58:59;3.40;;;0.90;;
64982;SDS011;62161;54.688;25.256;2022-07-15T09:01:27;5.97;;;1.00;;
64982;SDS011;62161;54.688;25.256;2022-07-15T09:03:53;4.68;;;1.02;;
64982;SDS011;62161;54.688;25.256;2022-07-15T09:07:31;2.00;;;0.80;;
64982;SDS011;62161;54.688;25.256;2022-07-15T09:10:17;1.25;;;0.60;;
64982;SDS011;62161;54.688;25.256;2022-07-15T09:12:42;2.75;;;0.90;;
64982;SDS011;62161;54.688;25.256;2022-07-15T09:15:08;1.90;;;0.90;;
64982;SDS011;62161;54.688;25.256;2022-07-15T09:17:33;4.10;;;0.80;;
64982;SDS011;62161;54.688;25.256;2022-07-15T09:20:00;2.15;;;0.90;;
64982;SDS011;62161;54.688;25.256;2022-07-15T09:22:26;1.65;;;0.75;;
64982;SDS011;62161;54.688;25.256;2022-07-15T09:25:04;2.47;;;0.90;;
64982;SDS011;62161;54.688;25.256;2022-07-15T09:27:33;2.53;;;0.70;;
64982;SDS011;62161;54.688;25.256;2022-07-15T09:33:11;2.47;;;0.73;;
64982;SDS011;62161;54.688;25.256;2022-07-15T09:38:51;2.17;;;0.80;;
64982;SDS011;62161;54.688;25.256;2022-07-15T09:41:24;1.58;;;0.70;;
64982;SDS011;62161;54.688;25.256;2022-07-15T09:44:32;1.48;;;0.52;;
64982;SDS011;62161;54.688;25.256;2022-07-15T09:46:58;6.57;;;0.63;;
64982;SDS011;62161;54.688;25.256;2022-07-15T09:54:19;1.33;;;0.60;;
64982;SDS011;62161;54.688;25.256;2022-07-15T09:56:46;1.98;;;1.00;;
64982;SDS011;62161;54.688;25.256;2022-07-15T09:59:12;0.80;;;0.73;;
64982;SDS011;62161;54.688;25.256;2022-07-15T10:01:39;1.25;;;0.75;;
64982;SDS011;62161;54.688;25.256;2022-07-15T10:04:05;2.88;;;0.60;;
64982;SDS011;62161;54.688;25.256;2022-07-15T10:06:31;1.02;;;0.60;;
64982;SDS011;62161;54.688;25.256;2022-07-15T10:09:00;0.65;;;0.47;;
64982;SDS011;62161;54.688;25.256;2022-07-15T10:11:26;1.95;;;0.60;;
64982;SDS011;62161;54.688;25.256;2022-07-15T10:21:41;1.80;;;0.70;;
64982;SDS011;62161;54.688;25.256;2022-07-15T10:29:51;4.20;;;0.70;;
64982;SDS011;62161;54.688;25.256;2022-07-15T10:32:18;3.63;;;0.70;;
64982;SDS011;62161;54.688;25.256;2022-07-15T10:34:43;2.08;;;0.70;;
64982;SDS011;62161;54.688;25.256;2022-07-15T10:37:09;2.53;;;0.73;;
64982;SDS011;62161;54.688;25.256;2022-07-15T10:39:49;1.92;;;0.82;;
64982;SDS011;62161;54.688;25.256;2022-07-15T10:42:25;0.93;;;0.60;;
64982;SDS011;62161;54.688;25.256;2022-07-15T10:47:23;2.20;;;0.68;;
64982;SDS011;62161;54.688;25.256;2022-07-15T10:49:48;2.05;;;0.60;;
64982;SDS011;62161;54.688;25.256;2022-07-15T10:52:19;3.45;;;0.60;;
64982;SDS011;62161;54.688;25.256;2022-07-15T10:54:47;1.73;;;0.57;;
64982;SDS011;62161;54.688;25.256;2022-07-15T11:00:05;1.85;;;0.73;;
64982;SDS011;62161;54.688;25.256;2022-07-15T11:11:59;3.22;;;0.70;;
64982;SDS011;62161;54.688;25.256;2022-07-15T11:13:55;2.70;;;0.70;;
64982;SDS011;62161;54.688;25.256;2022-07-15T11:16:20;0.82;;;0.60;;
64982;SDS011;62161;54.688;25.256;2022-07-15T11:18:47;3.60;;;0.75;;
64982;SDS011;62161;54.688;25.256;2022-07-15T11:21:17;1.05;;;0.60;;
64982;SDS011;62161;54.688;25.256;2022-07-15T11:23:45;0.95;;;0.60;;
64982;SDS011;62161;54.688;25.256;2022-07-15T11:26:11;2.90;;;0.70;;
64982;SDS011;62161;54.688;25.256;2022-07-15T11:28:37;4.22;;;0.80;;
64982;SDS011;62161;54.688;25.256;2022-07-15T11:31:02;4.20;;;0.50;;
64982;SDS011;62161;54.688;25.256;2022-07-15T11:33:28;3.28;;;0.63;;
64982;SDS011;62161;54.688;25.256;2022-07-15T11:36:02;2.25;;;0.70;;
64982;SDS011;62161;54.688;25.256;2022-07-15T11:38:29;3.22;;;0.90;;
64982;SDS011;62161;54.688;25.256;2022-07-15T11:41:02;1.05;;;0.60;;
64982;SDS011;62161;54.688;25.256;2022-07-15T11:44:02;2.38;;;0.88;;
64982;SDS011;62161;54.688;25.256;2022-07-15T11:46:51;4.07;;;0.68;;
64982;SDS011;62161;54.688;25.256;2022-07-15T11:49:34;5.80;;;0.88;;
64982;SDS011;62161;54.688;25.256;2022-07-15T11:52:04;1.70;;;0.60;;
64982;SDS011;62161;54.688;25.256;2022-07-15T11:54:30;2.72;;;0.80;;
64982;SDS011;62161;54.688;25.256;2022-07-15T11:56:57;3.53;;;0.80;;
64982;SDS011;62161;54.688;25.256;2022-07-15T11:59:25;3.05;;;0.70;;
64982;SDS011;62161;54.688;25.256;2022-07-15T12:02:00;1.88;;;0.70;;
64982;SDS011;62161;54.688;25.256;2022-07-15T12:04:26;2.95;;;0.60;;
64982;SDS011;62161;54.688;25.256;2022-07-15T12:06:52;4.10;;;0.90;;
64982;SDS011;62161;54.688;25.256;2022-07-15T12:09:18;1.70;;;0.60;;
64982;SDS011;62161;54.688;25.256;2022-07-15T12:11:43;5.13;;;0.88;;
64982;SDS011;62161;54.688;25.256;2022-07-15T12:14:10;2.35;;;0.60;;
64982;SDS011;62161;54.688;25.256;2022-07-15T12:16:42;8.88;;;0.80;;
64982;SDS011;62161;54.688;25.256;2022-07-15T12:19:13;8.93;;;0.67;;
64982;SDS011;62161;54.688;25.256;2022-07-15T12:21:40;1.98;;;0.60;;
64982;SDS011;62161;54.688;25.256;2022-07-15T12:24:08;1.40;;;0.43;;
64982;SDS011;62161;54.688;25.256;2022-07-15T12:26:42;4.53;;;0.70;;
64982;SDS011;62161;54.688;25.256;2022-07-15T12:29:22;3.55;;;0.60;;
64982;SDS011;62161;54.688;25.256;2022-07-15T12:31:51;3.97;;;0.70;;
64982;SDS011;62161;54.688;25.256;2022-07-15T12:34:19;2.97;;;0.50;;
64982;SDS011;62161;54.688;25.256;2022-07-15T12:36:53;2.45;;;0.50;;
64982;SDS011;62161;54.688;25.256;2022-07-15T12:39:20;1.67;;;0.55;;
64982;SDS011;62161;54.688;25.256;2022-07-15T12:41:56;2.30;;;0.60;;
64982;SDS011;62161;54.688;25.256;2022-07-15T12:44:31;3.05;;;0.82;;
64982;SDS011;62161;54.688;25.256;2022-07-15T12:46:58;2.88;;;0.70;;
64982;SDS011;62161;54.688;25.256;2022-07-15T12:49:39;6.07;;;0.70;;
64982;SDS011;62161;54.688;25.256;2022-07-15T12:52:11;6.18;;;0.90;;
64982;SDS011;62161;54.688;25.256;2022-07-15T12:54:40;6.30;;;1.20;;
64982;SDS011;62161;54.688;25.256;2022-07-15T12:57:17;2.22;;;0.70;;
64982;SDS011;62161;54.688;25.256;2022-07-15T12:59:58;2.95;;;0.73;;
64982;SDS011;62161;54.688;25.256;2022-07-15T13:02:29;3.00;;;0.55;;
64982;SDS011;62161;54.688;25.256;2022-07-15T13:04:54;2.58;;;0.60;;
64982;SDS011;62161;54.688;25.256;2022-07-15T13:07:20;2.08;;;0.55;;
64982;SDS011;62161;54.688;25.256;2022-07-15T13:09:46;2.97;;;0.60;;
64982;SDS011;62161;54.688;25.256;2022-07-15T13:12:12;3.60;;;0.50;;
64982;SDS011;62161;54.688;25.256;2022-07-15T13:14:38;1.77;;;0.60;;
64982;SDS011;62161;54.688;25.256;2022-07-15T13:17:04;2.17;;;1.08;;
64982;SDS011;62161;54.688;25.256;2022-07-15T13:19:30;3.55;;;0.70;;
64982;SDS011;62161;54.688;25.256;2022-07-15T13:21:57;1.42;;;0.60;;
64982;SDS011;62161;54.688;25.256;2022-07-15T13:24:23;3.42;;;0.63;;
64982;SDS011;62161;54.688;25.256;2022-07-15T13:26:49;1.50;;;0.47;;
64982;SDS011;62161;54.688;25.256;2022-07-15T13:29:14;1.65;;;0.60;;
64982;SDS011;62161;54.688;25.256;2022-07-15T13:31:40;3.80;;;0.80;;
64982;SDS011;62161;54.688;25.256;2022-07-15T13:34:05;2.78;;;1.60;;
64982;SDS011;62161;54.688;25.256;2022-07-15T13:36:31;2.17;;;0.80;;
64982;SDS011;62161;54.688;25.256;2022-07-15T13:38:56;3.85;;;0.70;;
64982;SDS011;62161;54.688;25.256;2022-07-15T13:41:22;2.60;;;0.80;;
64982;SDS011;62161;54.688;25.256;2022-07-15T13:43:47;2.97;;;0.80;;
64982;SDS011;62161;54.688;25.256;2022-07-15T13:46:13;2.13;;;0.70;;
64982;SDS011;62161;54.688;25.256;2022-07-15T13:48:38;1.50;;;0.47;;
64982;SDS011;62161;54.688;25.256;2022-07-15T13:51:03;2.08;;;0.75;;
64982;SDS011;62161;54.688;25.256;2022-07-15T13:53:47;2.95;;;0.90;;
64982;SDS011;62161;54.688;25.256;2022-07-15T13:56:14;2.40;;;0.77;;
64982;SDS011;62161;54.688;25.256;2022-07-15T13:58:39;2.28;;;0.70;;
64982;SDS011;62161;54.688;25.256;2022-07-15T14:01:05;1.10;;;0.50;;
64982;SDS011;62161;54.688;25.256;2022-07-15T14:03:30;2.33;;;0.85;;
64982;SDS011;62161;54.688;25.256;2022-07-15T14:05:55;2.08;;;0.65;;
64982;SDS011;62161;54.688;25.256;2022-07-15T14:08:21;2.75;;;0.70;;
64982;SDS011;62161;54.688;25.256;2022-07-15T14:10:46;3.17;;;0.70;;
64982;SDS011;62161;54.688;25.256;2022-07-15T14:13:12;2.45;;;0.80;;
64982;SDS011;62161;54.688;25.256;2022-07-15T14:15:37;1.38;;;0.60;;
64982;SDS011;62161;54.688;25.256;2022-07-15T14:18:03;3.13;;;0.70;;
64982;SDS011;62161;54.688;25.256;2022-07-15T14:20:29;2.33;;;0.70;;
64982;SDS011;62161;54.688;25.256;2022-07-15T14:22:54;1.88;;;0.73;;
64982;SDS011;62161;54.688;25.256;2022-07-15T14:25:20;1.60;;;0.70;;
64982;SDS011;62161;54.688;25.256;2022-07-15T14:27:46;3.28;;;0.82;;
64982;SDS011;62161;54.688;25.256;2022-07-15T14:30:12;7.15;;;0.80;;
64982;SDS011;62161;54.688;25.256;2022-07-15T14:32:38;4.57;;;1.05;;
64982;SDS011;62161;54.688;25.256;2022-07-15T14:35:04;2.42;;;0.68;;
64982;SDS011;62161;54.688;25.256;2022-07-15T14:37:30;5.53;;;0.90;;
64982;SDS011;62161;54.688;25.256;2022-07-15T14:39:56;2.97;;;1.00;;
64982;SDS011;62161;54.688;25.256;2022-07-15T14:42:21;3.28;;;0.90;;
64982;SDS011;62161;54.688;25.256;2022-07-15T14:44:47;3.60;;;0.80;;
64982;SDS011;62161;54.688;25.256;2022-07-15T14:47:12;3.83;;;0.80;;
64982;SDS011;62161;54.688;25.256;2022-07-15T14:49:38;3.58;;;0.70;;
64982;SDS011;62161;54.688;25.256;2022-07-15T14:52:03;1.80;;;0.65;;
64982;SDS011;62161;54.688;25.256;2022-07-15T14:54:29;1.80;;;0.77;;
64982;SDS011;62161;54.688;25.256;2022-07-15T14:56:54;3.03;;;0.82;;
64982;SDS011;62161;54.688;25.256;2022-07-15T14:59:20;3.83;;;1.08;;
64982;SDS011;62161;54.688;25.256;2022-07-15T15:01:45;7.57;;;1.13;;
64982;SDS011;62161;54.688;25.256;2022-07-15T15:04:11;2.17;;;0.77;;
64982;SDS011;62161;54.688;25.256;2022-07-15T15:06:36;4.30;;;0.80;;
64982;SDS011;62161;54.688;25.256;2022-07-15T15:09:02;4.18;;;1.05;;
64982;SDS011;62161;54.688;25.256;2022-07-15T15:11:27;5.45;;;1.10;;
64982;SDS011;62161;54.688;25.256;2022-07-15T15:13:53;5.47;;;0.90;;
64982;SDS011;62161;54.688;25.256;2022-07-15T15:16:18;14.50;;;2.03;;